sensor_id;sensor_type;location;lat;lon;timestamp;P1;durP1;ratioP1;P2;durP2;ratioP2
24435;SDS011;12616;52.470;13.436;2022-09-09T00:00:17;11.00;;;9.90;;
24435;SDS011;12616;52.470;13.436;2022-09-09T00:02:46;12.30;;;11.10;;
24435;SDS011;12616;52.470;13.436;2022-09-09T00:05:22;12.77;;;11.57;;
24435;SDS011;12616;52.470;13.436;2022-09-09T00:07:58;11.43;;;10.33;;
24435;SDS011;12616;52.470;13.436;2022-09-09T00:10:29;13.47;;;11.53;;
24435;SDS011;12616;52.470;13.436;2022-09-09T00:13:00;13.00;;;11.60;;
24435;SDS011;12616;52.470;13.436;2022-09-09T00:15:34;11.80;;;10.70;;
24435;SDS011;12616;52.470;13.436;2022-09-09T00:18:07;11.70;;;10.50;;
24435;SDS011;12616;52.470;13.436;2022-09-09T00:20:44;12.13;;;10.90;;
24435;SDS011;12616;52.470;13.436;2022-09-09T00:23:23;13.87;;;12.30;;
24435;SDS011;12616;52.470;13.436;2022-09-09T00:25:54;13.20;;;11.83;;
24435;SDS011;12616;52.470;13.436;2022-09-09T00:28:28;12.70;;;11.50;;
24435;SDS011;12616;52.470;13.436;2022-09-09T00:30:57;12.90;;;11.60;;
24435;SDS011;12616;52.470;13.436;2022-09-09T00:33:27;10.70;;;9.70;;
24435;SDS011;12616;52.470;13.436;2022-09-09T00:35:57;10.83;;;9.73;;
24435;SDS011;12616;52.470;13.436;2022-09-09T00:38:28;12.13;;;9.87;;
24435;SDS011;12616;52.470;13.436;2022-09-09T00:41:00;11.23;;;10.03;;
24435;SDS011;12616;52.470;13.436;2022-09-09T00:43:33;11.13;;;9.67;;
24435;SDS011;12616;52.470;13.436;2022-09-09T00:46:12;12.37;;;10.87;;
24435;SDS011;12616;52.470;13.436;2022-09-09T00:48:54;10.50;;;9.40;;
24435;SDS011;12616;52.470;13.436;2022-09-09T00:51:30;11.63;;;10.47;;
24435;SDS011;12616;52.470;13.436;2022-09-09T00:54:14;11.13;;;10.03;;
24435;SDS011;12616;52.470;13.436;2022-09-09T00:56:55;12.20;;;11.00;;
24435;SDS011;12616;52.470;13.436;2022-09-09T00:59:39;11.50;;;10.40;;
24435;SDS011;12616;52.470;13.436;2022-09-09T01:02:13;11.70;;;10.50;;
24435;SDS011;12616;52.470;13.436;2022-09-09T01:04:48;11.50;;;9.60;;
24435;SDS011;12616;52.470;13.436;2022-09-09T01:07:15;9.90;;;8.90;;
24435;SDS011;12616;52.470;13.436;2022-09-09T01:09:50;9.67;;;8.67;;
24435;SDS011;12616;52.470;13.436;2022-09-09T01:12:24;11.00;;;9.90;;
24435;SDS011;12616;52.470;13.436;2022-09-09T01:14:56;10.60;;;9.40;;
24435;SDS011;12616;52.470;13.436;2022-09-09T01:17:34;11.50;;;8.50;;
24435;SDS011;12616;52.470;13.436;2022-09-09T01:20:04;8.57;;;7.70;;
24435;SDS011;12616;52.470;13.436;2022-09-09T01:22:36;8.80;;;8.00;;
24435;SDS011;12616;52.470;13.436;2022-09-09T01:25:19;10.30;;;9.13;;
24435;SDS011;12616;52.470;13.436;2022-09-09T01:28:19;10.18;;;9.18;;
24435;SDS011;12616;52.470;13.436;2022-09-09T01:30:51;8.77;;;8.03;;
24435;SDS011;12616;52.470;13.436;2022-09-09T01:33:19;9.70;;;7.83;;
24435;SDS011;12616;52.470;13.436;2022-09-09T01:35:46;9.03;;;8.13;;
24435;SDS011;12616;52.470;13.436;2022-09-09T01:38:19;9.30;;;8.23;;
24435;SDS011;12616;52.470;13.436;2022-09-09T01:40:47;10.63;;;8.73;;
24435;SDS011;12616;52.470;13.436;2022-09-09T01:43:14;10.00;;;9.10;;
24435;SDS011;12616;52.470;13.436;2022-09-09T01:45:42;9.53;;;8.63;;
24435;SDS011;12616;52.470;13.436;2022-09-09T01:48:11;10.67;;;9.40;;
24435;SDS011;12616;52.470;13.436;2022-09-09T01:50:38;9.60;;;8.70;;
24435;SDS011;12616;52.470;13.436;2022-09-09T01:53:05;9.47;;;8.57;;
24435;SDS011;12616;52.470;13.436;2022-09-09T01:55:33;9.53;;;8.50;;
24435;SDS011;12616;52.470;13.436;2022-09-09T01:58:09;9.43;;;8.60;;
24435;SDS011;12616;52.470;13.436;2022-09-09T02:00:48;11.10;;;8.63;;
24435;SDS011;12616;52.470;13.436;2022-09-09T02:03:20;9.70;;;8.27;;
24435;SDS011;12616;52.470;13.436;2022-09-09T02:05:52;8.97;;;8.20;;
24435;SDS011;12616;52.470;13.436;2022-09-09T02:08:26;9.73;;;8.80;;
24435;SDS011;12616;52.470;13.436;2022-09-09T02:11:01;10.37;;;9.27;;
24435;SDS011;12616;52.470;13.436;2022-09-09T02:13:34;10.00;;;9.00;;
24435;SDS011;12616;52.470;13.436;2022-09-09T02:16:07;10.30;;;9.20;;
24435;SDS011;12616;52.470;13.436;2022-09-09T02:18:36;10.40;;;9.40;;
24435;SDS011;12616;52.470;13.436;2022-09-09T02:21:10;9.10;;;8.23;;
24435;SDS011;12616;52.470;13.436;2022-09-09T02:23:39;9.27;;;8.37;;
24435;SDS011;12616;52.470;13.436;2022-09-09T02:26:08;10.80;;;9.20;;
24435;SDS011;12616;52.470;13.436;2022-09-09T02:28:39;10.33;;;8.67;;
24435;SDS011;12616;52.470;13.436;2022-09-09T02:31:08;10.50;;;9.47;;
24435;SDS011;12616;52.470;13.436;2022-09-09T02:33:37;9.60;;;8.37;;
24435;SDS011;12616;52.470;13.436;2022-09-09T02:36:07;9.67;;;8.77;;
24435;SDS011;12616;52.470;13.436;2022-09-09T02:38:37;8.80;;;7.93;;
24435;SDS011;12616;52.470;13.436;2022-09-09T02:41:08;9.00;;;8.10;;
24435;SDS011;12616;52.470;13.436;2022-09-09T02:43:35;16.43;;;8.73;;
24435;SDS011;12616;52.470;13.436;2022-09-09T02:46:03;8.80;;;7.90;;
24435;SDS011;12616;52.470;13.436;2022-09-09T02:48:55;10.43;;;8.70;;
24435;SDS011;12616;52.470;13.436;2022-09-09T02:51:28;10.13;;;9.20;;
24435;SDS011;12616;52.470;13.436;2022-09-09T02:54:04;9.50;;;8.43;;
24435;SDS011;12616;52.470;13.436;2022-09-09T02:56:38;8.50;;;7.70;;
24435;SDS011;12616;52.470;13.436;2022-09-09T02:59:07;9.07;;;7.97;;
24435;SDS011;12616;52.470;13.436;2022-09-09T03:01:34;8.60;;;7.47;;
24435;SDS011;12616;52.470;13.436;2022-09-09T03:04:03;9.37;;;8.17;;
24435;SDS011;12616;52.470;13.436;2022-09-09T03:06:30;8.73;;;7.83;;
24435;SDS011;12616;52.470;13.436;2022-09-09T03:08:57;9.07;;;8.23;;
24435;SDS011;12616;52.470;13.436;2022-09-09T03:11:25;8.83;;;7.47;;
24435;SDS011;12616;52.470;13.436;2022-09-09T03:13:52;9.83;;;8.40;;
24435;SDS011;12616;52.470;13.436;2022-09-09T03:16:21;13.97;;;8.03;;
24435;SDS011;12616;52.470;13.436;2022-09-09T03:18:48;9.90;;;7.90;;
24435;SDS011;12616;52.470;13.436;2022-09-09T03:21:16;9.20;;;8.30;;
24435;SDS011;12616;52.470;13.436;2022-09-09T03:23:43;7.80;;;7.10;;
24435;SDS011;12616;52.470;13.436;2022-09-09T03:26:11;9.97;;;8.10;;
24435;SDS011;12616;52.470;13.436;2022-09-09T03:28:40;8.13;;;7.33;;
24435;SDS011;12616;52.470;13.436;2022-09-09T03:31:07;8.37;;;7.57;;
24435;SDS011;12616;52.470;13.436;2022-09-09T03:33:35;9.47;;;7.47;;
24435;SDS011;12616;52.470;13.436;2022-09-09T03:36:02;12.97;;;8.07;;
24435;SDS011;12616;52.470;13.436;2022-09-09T03:38:33;11.07;;;7.30;;
24435;SDS011;12616;52.470;13.436;2022-09-09T03:41:00;8.50;;;7.67;;
24435;SDS011;12616;52.470;13.436;2022-09-09T03:43:27;9.17;;;8.37;;
24435;SDS011;12616;52.470;13.436;2022-09-09T03:45:55;8.47;;;7.63;;
24435;SDS011;12616;52.470;13.436;2022-09-09T03:48:22;12.17;;;7.90;;
24435;SDS011;12616;52.470;13.436;2022-09-09T03:50:50;9.07;;;7.60;;
24435;SDS011;12616;52.470;13.436;2022-09-09T03:53:19;8.60;;;7.80;;
24435;SDS011;12616;52.470;13.436;2022-09-09T03:55:49;8.67;;;7.87;;
24435;SDS011;12616;52.470;13.436;2022-09-09T03:58:19;7.80;;;6.80;;
24435;SDS011;12616;52.470;13.436;2022-09-09T04:00:52;7.83;;;7.10;;
24435;SDS011;12616;52.470;13.436;2022-09-09T04:03:20;8.13;;;7.20;;
24435;SDS011;12616;52.470;13.436;2022-09-09T04:05:48;7.97;;;7.00;;
24435;SDS011;12616;52.470;13.436;2022-09-09T04:08:15;7.83;;;7.00;;
24435;SDS011;12616;52.470;13.436;2022-09-09T04:10:41;7.80;;;7.00;;
24435;SDS011;12616;52.470;13.436;2022-09-09T04:13:12;9.73;;;7.87;;
24435;SDS011;12616;52.470;13.436;2022-09-09T04:15:40;8.97;;;8.17;;
24435;SDS011;12616;52.470;13.436;2022-09-09T04:18:07;8.00;;;7.30;;
24435;SDS011;12616;52.470;13.436;2022-09-09T04:20:34;12.83;;;7.97;;
24435;SDS011;12616;52.470;13.436;2022-09-09T04:23:00;7.97;;;7.23;;
24435;SDS011;12616;52.470;13.436;2022-09-09T04:25:27;11.87;;;7.97;;
24435;SDS011;12616;52.470;13.436;2022-09-09T04:27:54;9.43;;;8.20;;
24435;SDS011;12616;52.470;13.436;2022-09-09T04:30:23;7.83;;;6.80;;
24435;SDS011;12616;52.470;13.436;2022-09-09T04:32:50;8.23;;;7.43;;
24435;SDS011;12616;52.470;13.436;2022-09-09T04:35:17;8.03;;;7.33;;
24435;SDS011;12616;52.470;13.436;2022-09-09T04:37:45;7.83;;;6.90;;
24435;SDS011;12616;52.470;13.436;2022-09-09T04:40:13;8.87;;;8.07;;
24435;SDS011;12616;52.470;13.436;2022-09-09T04:42:40;9.40;;;6.43;;
24435;SDS011;12616;52.470;13.436;2022-09-09T04:45:09;8.13;;;7.33;;
24435;SDS011;12616;52.470;13.436;2022-09-09T04:47:39;8.07;;;7.27;;
24435;SDS011;12616;52.470;13.436;2022-09-09T04:50:06;10.03;;;7.30;;
24435;SDS011;12616;52.470;13.436;2022-09-09T04:52:34;8.23;;;7.00;;
24435;SDS011;12616;52.470;13.436;2022-09-09T04:55:02;6.93;;;6.33;;
24435;SDS011;12616;52.470;13.436;2022-09-09T04:57:29;7.43;;;6.87;;
24435;SDS011;12616;52.470;13.436;2022-09-09T04:59:57;7.57;;;6.97;;
24435;SDS011;12616;52.470;13.436;2022-09-09T05:02:24;6.30;;;5.70;;
24435;SDS011;12616;52.470;13.436;2022-09-09T05:04:52;8.25;;;7.03;;
24435;SDS011;12616;52.470;13.436;2022-09-09T05:07:20;7.23;;;6.53;;
24435;SDS011;12616;52.470;13.436;2022-09-09T05:09:46;10.20;;;6.97;;
24435;SDS011;12616;52.470;13.436;2022-09-09T05:12:14;8.90;;;6.33;;
24435;SDS011;12616;52.470;13.436;2022-09-09T05:14:42;9.37;;;7.63;;
24435;SDS011;12616;52.470;13.436;2022-09-09T05:17:09;11.63;;;6.77;;
24435;SDS011;12616;52.470;13.436;2022-09-09T05:19:35;6.87;;;6.27;;
24435;SDS011;12616;52.470;13.436;2022-09-09T05:22:04;10.70;;;6.50;;
24435;SDS011;12616;52.470;13.436;2022-09-09T05:24:31;8.80;;;5.87;;
24435;SDS011;12616;52.470;13.436;2022-09-09T05:26:58;11.30;;;6.00;;
24435;SDS011;12616;52.470;13.436;2022-09-09T05:29:26;8.23;;;5.57;;
24435;SDS011;12616;52.470;13.436;2022-09-09T05:31:53;13.43;;;6.57;;
24435;SDS011;12616;52.470;13.436;2022-09-09T05:34:19;6.17;;;5.57;;
24435;SDS011;12616;52.470;13.436;2022-09-09T05:36:47;6.77;;;6.00;;
24435;SDS011;12616;52.470;13.436;2022-09-09T05:39:15;14.93;;;7.03;;
24435;SDS011;12616;52.470;13.436;2022-09-09T05:41:42;10.17;;;6.80;;
24435;SDS011;12616;52.470;13.436;2022-09-09T05:44:08;6.63;;;6.07;;
24435;SDS011;12616;52.470;13.436;2022-09-09T05:46:35;5.73;;;5.23;;
24435;SDS011;12616;52.470;13.436;2022-09-09T05:49:02;6.20;;;5.47;;
24435;SDS011;12616;52.470;13.436;2022-09-09T05:51:30;7.67;;;6.93;;
24435;SDS011;12616;52.470;13.436;2022-09-09T05:53:57;17.83;;;13.23;;
24435;SDS011;12616;52.470;13.436;2022-09-09T05:56:26;9.00;;;6.47;;
24435;SDS011;12616;52.470;13.436;2022-09-09T05:58:54;7.80;;;6.47;;
24435;SDS011;12616;52.470;13.436;2022-09-09T06:01:22;6.90;;;5.40;;
24435;SDS011;12616;52.470;13.436;2022-09-09T06:03:50;11.33;;;5.50;;
24435;SDS011;12616;52.470;13.436;2022-09-09T06:06:17;6.30;;;5.13;;
24435;SDS011;12616;52.470;13.436;2022-09-09T06:08:46;6.03;;;4.77;;
24435;SDS011;12616;52.470;13.436;2022-09-09T06:11:16;6.87;;;5.00;;
24435;SDS011;12616;52.470;13.436;2022-09-09T06:13:45;6.60;;;5.50;;
24435;SDS011;12616;52.470;13.436;2022-09-09T06:16:13;7.03;;;5.63;;
24435;SDS011;12616;52.470;13.436;2022-09-09T06:18:41;6.27;;;5.23;;
24435;SDS011;12616;52.470;13.436;2022-09-09T06:21:10;6.10;;;5.50;;
24435;SDS011;12616;52.470;13.436;2022-09-09T06:23:40;5.10;;;4.70;;
24435;SDS011;12616;52.470;13.436;2022-09-09T06:26:09;4.77;;;4.30;;
24435;SDS011;12616;52.470;13.436;2022-09-09T06:28:37;6.73;;;4.90;;
24435;SDS011;12616;52.470;13.436;2022-09-09T06:31:07;5.50;;;5.00;;
24435;SDS011;12616;52.470;13.436;2022-09-09T06:33:35;5.83;;;4.40;;
24435;SDS011;12616;52.470;13.436;2022-09-09T06:36:06;5.43;;;4.80;;
24435;SDS011;12616;52.470;13.436;2022-09-09T06:38:36;6.70;;;4.20;;
24435;SDS011;12616;52.470;13.436;2022-09-09T06:41:03;9.83;;;4.53;;
24435;SDS011;12616;52.470;13.436;2022-09-09T06:43:31;4.43;;;4.03;;
24435;SDS011;12616;52.470;13.436;2022-09-09T06:45:58;9.50;;;5.23;;
24435;SDS011;12616;52.470;13.436;2022-09-09T06:48:27;7.80;;;5.70;;
24435;SDS011;12616;52.470;13.436;2022-09-09T06:51:01;10.53;;;5.50;;
24435;SDS011;12616;52.470;13.436;2022-09-09T06:53:28;15.70;;;7.57;;
24435;SDS011;12616;52.470;13.436;2022-09-09T06:55:56;4.70;;;4.23;;
24435;SDS011;12616;52.470;13.436;2022-09-09T06:58:22;6.97;;;5.60;;
24435;SDS011;12616;52.470;13.436;2022-09-09T07:00:49;7.03;;;5.90;;
24435;SDS011;12616;52.470;13.436;2022-09-09T07:03:16;12.30;;;11.03;;
24435;SDS011;12616;52.470;13.436;2022-09-09T07:05:44;6.07;;;4.33;;
24435;SDS011;12616;52.470;13.436;2022-09-09T07:08:20;6.03;;;4.80;;
24435;SDS011;12616;52.470;13.436;2022-09-09T07:10:47;9.50;;;5.13;;
24435;SDS011;12616;52.470;13.436;2022-09-09T07:13:14;6.30;;;4.00;;
24435;SDS011;12616;52.470;13.436;2022-09-09T07:15:41;7.00;;;4.27;;
24435;SDS011;12616;52.470;13.436;2022-09-09T07:18:08;14.60;;;5.37;;
24435;SDS011;12616;52.470;13.436;2022-09-09T07:20:35;17.30;;;5.60;;
24435;SDS011;12616;52.470;13.436;2022-09-09T07:23:03;11.00;;;6.13;;
24435;SDS011;12616;52.470;13.436;2022-09-09T07:25:29;20.83;;;6.20;;
24435;SDS011;12616;52.470;13.436;2022-09-09T07:27:56;5.63;;;3.97;;
24435;SDS011;12616;52.470;13.436;2022-09-09T07:30:23;6.00;;;4.10;;
24435;SDS011;12616;52.470;13.436;2022-09-09T07:32:50;11.73;;;3.80;;
24435;SDS011;12616;52.470;13.436;2022-09-09T07:35:17;4.03;;;3.60;;
24435;SDS011;12616;52.470;13.436;2022-09-09T07:37:45;3.90;;;3.50;;
24435;SDS011;12616;52.470;13.436;2022-09-09T07:40:13;4.30;;;2.90;;
24435;SDS011;12616;52.470;13.436;2022-09-09T07:42:44;3.93;;;3.47;;
24435;SDS011;12616;52.470;13.436;2022-09-09T07:45:12;3.20;;;2.80;;
24435;SDS011;12616;52.470;13.436;2022-09-09T07:47:39;7.10;;;4.00;;
24435;SDS011;12616;52.470;13.436;2022-09-09T07:50:07;8.57;;;3.70;;
24435;SDS011;12616;52.470;13.436;2022-09-09T07:52:34;4.03;;;3.63;;
24435;SDS011;12616;52.470;13.436;2022-09-09T07:55:01;4.80;;;3.50;;
24435;SDS011;12616;52.470;13.436;2022-09-09T07:57:30;6.13;;;3.20;;
24435;SDS011;12616;52.470;13.436;2022-09-09T07:59:57;2.83;;;2.30;;
24435;SDS011;12616;52.470;13.436;2022-09-09T08:02:24;4.13;;;2.67;;
24435;SDS011;12616;52.470;13.436;2022-09-09T08:04:54;3.43;;;3.17;;
24435;SDS011;12616;52.470;13.436;2022-09-09T08:07:21;3.33;;;3.03;;
24435;SDS011;12616;52.470;13.436;2022-09-09T08:09:48;8.13;;;4.43;;
24435;SDS011;12616;52.470;13.436;2022-09-09T08:12:15;5.27;;;4.37;;
24435;SDS011;12616;52.470;13.436;2022-09-09T08:14:44;6.20;;;3.33;;
24435;SDS011;12616;52.470;13.436;2022-09-09T08:17:11;4.80;;;3.87;;
24435;SDS011;12616;52.470;13.436;2022-09-09T08:19:38;7.20;;;3.50;;
24435;SDS011;12616;52.470;13.436;2022-09-09T08:22:04;3.57;;;3.23;;
24435;SDS011;12616;52.470;13.436;2022-09-09T08:24:31;8.90;;;3.57;;
24435;SDS011;12616;52.470;13.436;2022-09-09T08:26:58;3.93;;;2.90;;
24435;SDS011;12616;52.470;13.436;2022-09-09T08:29:24;8.33;;;4.30;;
24435;SDS011;12616;52.470;13.436;2022-09-09T08:31:54;5.70;;;4.40;;
24435;SDS011;12616;52.470;13.436;2022-09-09T08:34:23;5.93;;;3.73;;
24435;SDS011;12616;52.470;13.436;2022-09-09T08:36:51;3.00;;;2.70;;
24435;SDS011;12616;52.470;13.436;2022-09-09T08:39:19;3.03;;;2.83;;
24435;SDS011;12616;52.470;13.436;2022-09-09T08:44:54;4.30;;;3.27;;
24435;SDS011;12616;52.470;13.436;2022-09-09T08:47:42;3.70;;;3.20;;
24435;SDS011;12616;52.470;13.436;2022-09-09T08:50:19;4.23;;;3.80;;
24435;SDS011;12616;52.470;13.436;2022-09-09T08:52:53;6.80;;;3.63;;
24435;SDS011;12616;52.470;13.436;2022-09-09T08:55:27;5.30;;;3.80;;
24435;SDS011;12616;52.470;13.436;2022-09-09T08:58:01;3.33;;;3.03;;
24435;SDS011;12616;52.470;13.436;2022-09-09T09:00:36;3.50;;;3.00;;
24435;SDS011;12616;52.470;13.436;2022-09-09T09:03:13;5.03;;;3.30;;
24435;SDS011;12616;52.470;13.436;2022-09-09T09:05:48;6.57;;;5.27;;
24435;SDS011;12616;52.470;13.436;2022-09-09T09:08:24;5.17;;;4.33;;
24435;SDS011;12616;52.470;13.436;2022-09-09T09:10:56;4.97;;;3.60;;
24435;SDS011;12616;52.470;13.436;2022-09-09T09:13:26;3.80;;;3.37;;
24435;SDS011;12616;52.470;13.436;2022-09-09T09:16:02;4.37;;;3.30;;
24435;SDS011;12616;52.470;13.436;2022-09-09T09:18:50;5.03;;;2.70;;
24435;SDS011;12616;52.470;13.436;2022-09-09T09:21:19;4.27;;;3.27;;
24435;SDS011;12616;52.470;13.436;2022-09-09T09:23:53;7.80;;;3.90;;
24435;SDS011;12616;52.470;13.436;2022-09-09T09:26:23;5.40;;;4.13;;
24435;SDS011;12616;52.470;13.436;2022-09-09T09:28:55;4.30;;;3.00;;
24435;SDS011;12616;52.470;13.436;2022-09-09T09:31:23;3.17;;;2.87;;
24435;SDS011;12616;52.470;13.436;2022-09-09T09:33:53;3.90;;;2.93;;
24435;SDS011;12616;52.470;13.436;2022-09-09T09:36:21;5.20;;;3.53;;
24435;SDS011;12616;52.470;13.436;2022-09-09T09:38:52;7.30;;;3.60;;
24435;SDS011;12616;52.470;13.436;2022-09-09T09:41:30;4.70;;;3.27;;
24435;SDS011;12616;52.470;13.436;2022-09-09T09:43:58;4.20;;;3.63;;
24435;SDS011;12616;52.470;13.436;2022-09-09T09:46:26;7.27;;;2.53;;
24435;SDS011;12616;52.470;13.436;2022-09-09T09:48:58;3.40;;;2.70;;
24435;SDS011;12616;52.470;13.436;2022-09-09T09:51:25;5.53;;;3.87;;
24435;SDS011;12616;52.470;13.436;2022-09-09T09:53:53;5.57;;;4.10;;
24435;SDS011;12616;52.470;13.436;2022-09-09T09:56:26;6.80;;;4.17;;
24435;SDS011;12616;52.470;13.436;2022-09-09T09:58:54;5.57;;;3.07;;
24435;SDS011;12616;52.470;13.436;2022-09-09T10:01:22;4.17;;;3.00;;
24435;SDS011;12616;52.470;13.436;2022-09-09T10:03:51;3.70;;;2.73;;
24435;SDS011;12616;52.470;13.436;2022-09-09T10:06:29;3.10;;;2.47;;
24435;SDS011;12616;52.470;13.436;2022-09-09T10:08:57;2.93;;;2.30;;
24435;SDS011;12616;52.470;13.436;2022-09-09T10:11:30;3.50;;;3.10;;
24435;SDS011;12616;52.470;13.436;2022-09-09T10:14:12;6.33;;;3.70;;
24435;SDS011;12616;52.470;13.436;2022-09-09T10:16:48;3.57;;;3.30;;
24435;SDS011;12616;52.470;13.436;2022-09-09T10:19:29;2.43;;;2.33;;
24435;SDS011;12616;52.470;13.436;2022-09-09T10:22:02;4.73;;;2.60;;
24435;SDS011;12616;52.470;13.436;2022-09-09T10:24:43;3.67;;;2.97;;
24435;SDS011;12616;52.470;13.436;2022-09-09T10:27:23;6.73;;;2.60;;
24435;SDS011;12616;52.470;13.436;2022-09-09T10:30:05;4.27;;;3.30;;
24435;SDS011;12616;52.470;13.436;2022-09-09T10:32:40;3.43;;;2.60;;
24435;SDS011;12616;52.470;13.436;2022-09-09T10:35:25;3.30;;;2.30;;
24435;SDS011;12616;52.470;13.436;2022-09-09T10:38:15;2.97;;;2.77;;
24435;SDS011;12616;52.470;13.436;2022-09-09T10:40:46;3.77;;;2.87;;
24435;SDS011;12616;52.470;13.436;2022-09-09T10:43:29;5.37;;;2.93;;
24435;SDS011;12616;52.470;13.436;2022-09-09T10:46:18;6.00;;;3.40;;
24435;SDS011;12616;52.470;13.436;2022-09-09T10:49:00;3.23;;;2.70;;
24435;SDS011;12616;52.470;13.436;2022-09-09T10:51:36;3.50;;;3.07;;
24435;SDS011;12616;52.470;13.436;2022-09-09T10:54:16;5.57;;;3.10;;
24435;SDS011;12616;52.470;13.436;2022-09-09T10:56:54;8.10;;;5.17;;
24435;SDS011;12616;52.470;13.436;2022-09-09T10:59:25;13.50;;;10.37;;
24435;SDS011;12616;52.470;13.436;2022-09-09T11:01:56;6.83;;;4.73;;
24435;SDS011;12616;52.470;13.436;2022-09-09T11:04:27;3.00;;;2.50;;
24435;SDS011;12616;52.470;13.436;2022-09-09T11:07:00;3.83;;;2.70;;
24435;SDS011;12616;52.470;13.436;2022-09-09T11:09:35;5.67;;;3.37;;
24435;SDS011;12616;52.470;13.436;2022-09-09T11:12:07;4.70;;;3.37;;
24435;SDS011;12616;52.470;13.436;2022-09-09T11:14:41;4.47;;;2.70;;
24435;SDS011;12616;52.470;13.436;2022-09-09T11:17:12;5.30;;;2.30;;
24435;SDS011;12616;52.470;13.436;2022-09-09T11:19:43;11.57;;;3.83;;
24435;SDS011;12616;52.470;13.436;2022-09-09T11:22:15;5.27;;;3.40;;
24435;SDS011;12616;52.470;13.436;2022-09-09T11:24:48;2.23;;;1.90;;
24435;SDS011;12616;52.470;13.436;2022-09-09T11:27:20;3.50;;;2.03;;
24435;SDS011;12616;52.470;13.436;2022-09-09T11:29:56;8.20;;;1.90;;
24435;SDS011;12616;52.470;13.436;2022-09-09T11:32:42;2.83;;;2.60;;
24435;SDS011;12616;52.470;13.436;2022-09-09T11:35:31;3.23;;;2.13;;
24435;SDS011;12616;52.470;13.436;2022-09-09T11:38:16;3.60;;;1.67;;
24435;SDS011;12616;52.470;13.436;2022-09-09T11:40:48;4.70;;;2.23;;
24435;SDS011;12616;52.470;13.436;2022-09-09T11:43:23;3.47;;;2.80;;
24435;SDS011;12616;52.470;13.436;2022-09-09T11:45:53;2.70;;;2.47;;
24435;SDS011;12616;52.470;13.436;2022-09-09T11:48:25;5.57;;;2.73;;
24435;SDS011;12616;52.470;13.436;2022-09-09T11:50:59;4.93;;;4.17;;
24435;SDS011;12616;52.470;13.436;2022-09-09T11:53:30;4.50;;;2.70;;
24435;SDS011;12616;52.470;13.436;2022-09-09T11:56:03;4.70;;;2.50;;
24435;SDS011;12616;52.470;13.436;2022-09-09T11:58:42;3.20;;;2.90;;
24435;SDS011;12616;52.470;13.436;2022-09-09T12:04:16;2.60;;;2.03;;
24435;SDS011;12616;52.470;13.436;2022-09-09T12:06:59;4.17;;;2.47;;
24435;SDS011;12616;52.470;13.436;2022-09-09T12:09:30;2.83;;;2.13;;
24435;SDS011;12616;52.470;13.436;2022-09-09T12:12:28;4.07;;;2.60;;
24435;SDS011;12616;52.470;13.436;2022-09-09T12:14:59;6.40;;;2.60;;
24435;SDS011;12616;52.470;13.436;2022-09-09T12:17:27;4.50;;;2.20;;
24435;SDS011;12616;52.470;13.436;2022-09-09T12:20:09;3.80;;;2.27;;
24435;SDS011;12616;52.470;13.436;2022-09-09T12:22:45;2.20;;;1.83;;
24435;SDS011;12616;52.470;13.436;2022-09-09T12:25:39;2.30;;;2.10;;
24435;SDS011;12616;52.470;13.436;2022-09-09T12:28:25;2.37;;;2.17;;
24435;SDS011;12616;52.470;13.436;2022-09-09T12:31:04;3.33;;;2.20;;
24435;SDS011;12616;52.470;13.436;2022-09-09T12:33:39;2.63;;;2.43;;
24435;SDS011;12616;52.470;13.436;2022-09-09T12:36:09;5.57;;;3.23;;
24435;SDS011;12616;52.470;13.436;2022-09-09T12:38:40;7.13;;;2.90;;
24435;SDS011;12616;52.470;13.436;2022-09-09T12:41:15;3.20;;;2.20;;
24435;SDS011;12616;52.470;13.436;2022-09-09T12:43:46;2.13;;;1.60;;
24435;SDS011;12616;52.470;13.436;2022-09-09T12:46:17;6.67;;;3.20;;
24435;SDS011;12616;52.470;13.436;2022-09-09T12:48:52;2.70;;;1.80;;
24435;SDS011;12616;52.470;13.436;2022-09-09T12:51:21;3.50;;;2.23;;
24435;SDS011;12616;52.470;13.436;2022-09-09T12:53:51;4.47;;;3.30;;
24435;SDS011;12616;52.470;13.436;2022-09-09T12:56:19;3.80;;;3.40;;
24435;SDS011;12616;52.470;13.436;2022-09-09T12:58:49;4.40;;;2.53;;
24435;SDS011;12616;52.470;13.436;2022-09-09T13:01:20;2.60;;;2.40;;
24435;SDS011;12616;52.470;13.436;2022-09-09T13:03:58;3.20;;;2.27;;
24435;SDS011;12616;52.470;13.436;2022-09-09T13:06:26;1.80;;;1.50;;
24435;SDS011;12616;52.470;13.436;2022-09-09T13:08:55;2.10;;;1.90;;
24435;SDS011;12616;52.470;13.436;2022-09-09T13:11:24;12.93;;;11.10;;
24435;SDS011;12616;52.470;13.436;2022-09-09T13:13:57;6.60;;;3.90;;
24435;SDS011;12616;52.470;13.436;2022-09-09T13:16:25;4.77;;;3.27;;
24435;SDS011;12616;52.470;13.436;2022-09-09T13:18:55;11.00;;;6.57;;
24435;SDS011;12616;52.470;13.436;2022-09-09T13:21:30;9.23;;;7.10;;
24435;SDS011;12616;52.470;13.436;2022-09-09T13:23:59;4.10;;;3.13;;
24435;SDS011;12616;52.470;13.436;2022-09-09T13:26:28;9.47;;;4.30;;
24435;SDS011;12616;52.470;13.436;2022-09-09T13:29:07;4.60;;;3.93;;
24435;SDS011;12616;52.470;13.436;2022-09-09T13:31:42;7.13;;;5.77;;
24435;SDS011;12616;52.470;13.436;2022-09-09T13:34:10;3.37;;;2.10;;
24435;SDS011;12616;52.470;13.436;2022-09-09T13:36:39;3.30;;;2.40;;
24435;SDS011;12616;52.470;13.436;2022-09-09T13:39:12;8.40;;;7.50;;
24435;SDS011;12616;52.470;13.436;2022-09-09T13:41:43;5.30;;;4.20;;
24435;SDS011;12616;52.470;13.436;2022-09-09T13:44:17;7.00;;;6.10;;
24435;SDS011;12616;52.470;13.436;2022-09-09T13:46:58;8.00;;;6.50;;
24435;SDS011;12616;52.470;13.436;2022-09-09T13:49:28;6.20;;;4.90;;
24435;SDS011;12616;52.470;13.436;2022-09-09T13:52:03;10.27;;;9.20;;
24435;SDS011;12616;52.470;13.436;2022-09-09T13:54:31;11.37;;;8.23;;
24435;SDS011;12616;52.470;13.436;2022-09-09T13:56:57;6.07;;;4.93;;
24435;SDS011;12616;52.470;13.436;2022-09-09T13:59:26;7.53;;;4.10;;
24435;SDS011;12616;52.470;13.436;2022-09-09T14:01:53;7.10;;;4.20;;
24435;SDS011;12616;52.470;13.436;2022-09-09T14:04:19;4.97;;;4.03;;
24435;SDS011;12616;52.470;13.436;2022-09-09T14:06:46;4.80;;;3.13;;
24435;SDS011;12616;52.470;13.436;2022-09-09T14:09:15;2.53;;;2.10;;
24435;SDS011;12616;52.470;13.436;2022-09-09T14:11:43;5.30;;;4.20;;
24435;SDS011;12616;52.470;13.436;2022-09-09T14:14:11;6.20;;;2.37;;
24435;SDS011;12616;52.470;13.436;2022-09-09T14:16:39;2.10;;;1.80;;
24435;SDS011;12616;52.470;13.436;2022-09-09T14:19:07;4.93;;;2.70;;
24435;SDS011;12616;52.470;13.436;2022-09-09T14:21:34;5.40;;;2.93;;
24435;SDS011;12616;52.470;13.436;2022-09-09T14:24:01;3.03;;;2.60;;
24435;SDS011;12616;52.470;13.436;2022-09-09T14:26:27;3.53;;;2.40;;
24435;SDS011;12616;52.470;13.436;2022-09-09T14:28:55;4.50;;;3.07;;
24435;SDS011;12616;52.470;13.436;2022-09-09T14:31:21;4.07;;;3.53;;
24435;SDS011;12616;52.470;13.436;2022-09-09T14:33:50;8.30;;;4.47;;
24435;SDS011;12616;52.470;13.436;2022-09-09T14:36:17;5.63;;;3.40;;
24435;SDS011;12616;52.470;13.436;2022-09-09T14:38:44;6.03;;;2.70;;
24435;SDS011;12616;52.470;13.436;2022-09-09T14:41:11;5.57;;;3.27;;
24435;SDS011;12616;52.470;13.436;2022-09-09T14:43:39;2.90;;;2.60;;
24435;SDS011;12616;52.470;13.436;2022-09-09T14:46:06;4.10;;;3.70;;
24435;SDS011;12616;52.470;13.436;2022-09-09T14:48:34;4.90;;;3.97;;
24435;SDS011;12616;52.470;13.436;2022-09-09T14:51:06;5.33;;;4.10;;
24435;SDS011;12616;52.470;13.436;2022-09-09T14:53:34;2.40;;;2.20;;
24435;SDS011;12616;52.470;13.436;2022-09-09T14:56:04;5.33;;;2.27;;
24435;SDS011;12616;52.470;13.436;2022-09-09T14:58:32;3.30;;;2.00;;